パース の空港の天気 - METARとTAF

パース空港 ( YPPH / PER ) - オーストラリア 西オーストラリア州パース
飛行場実況気象(Metar)
観測時間10/29 01:00 AWST (10/28 17:00 UTC)
風向・風速東 6m/s
視程10km以上
天気現象
なし
気温17℃
湿度55%
気圧1019hPa
METARYPPH 281700Z 09011KT 080V160 CAVOK 17/08 Q1019 FM1700 MOD TURB BLW 3000FT
過去の天気等 Google飛行場航空写真 Wunderground天気予報

過去48時間のMETAR

飛行場予報(TAF)
発表時間: 10/28 19:03 AWST (10/28 11:03 UTC)
予報対象時間: 28日20時 AWST ~ 30日2時 AWST
風向・風速南 4m/s
視程10km以上
なし
29日1時 AWST から
風向・風速東 8m/s 瞬間風速 14m/s
視程10km以上
なし
29日11時 AWST から
風向・風速東 6m/s
視程10km以上
なし
29日22時 AWST から
風向・風速東 8m/s 瞬間風速 13m/s
視程10km以上
なし
TAF AMD YPPH 281103Z 2812/2918 19008KT CAVOK
FM281700 09016G28KT CAVOK
FM290300 10012KT CAVOK
FM291400 10015G25KT CAVOK